sensor_id;sensor_type;location;lat;lon;timestamp;P1;durP1;ratioP1;P2;durP2;ratioP2
3401;SDS011;1714;49.756;8.610;2022-09-12T00:08:56;5.47;;;4.80;;
3401;SDS011;1714;49.756;8.610;2022-09-12T00:19:01;4.60;;;4.10;;
3401;SDS011;1714;49.756;8.610;2022-09-12T00:29:04;5.82;;;3.78;;
3401;SDS011;1714;49.756;8.610;2022-09-12T00:39:06;5.20;;;4.28;;
3401;SDS011;1714;49.756;8.610;2022-09-12T00:49:10;6.53;;;4.13;;
3401;SDS011;1714;49.756;8.610;2022-09-12T00:59:24;6.97;;;5.22;;
3401;SDS011;1714;49.756;8.610;2022-09-12T01:09:33;6.47;;;4.57;;
3401;SDS011;1714;49.756;8.610;2022-09-12T01:50:22;5.55;;;4.93;;
3401;SDS011;1714;49.756;8.610;2022-09-12T02:00:42;5.93;;;4.55;;
3401;SDS011;1714;49.756;8.610;2022-09-12T02:11:15;8.20;;;4.82;;
3401;SDS011;1714;49.756;8.610;2022-09-12T02:21:18;7.40;;;4.95;;
3401;SDS011;1714;49.756;8.610;2022-09-12T02:41:30;11.60;;;4.93;;
3401;SDS011;1714;49.756;8.610;2022-09-12T02:51:33;5.40;;;4.22;;
3401;SDS011;1714;49.756;8.610;2022-09-12T03:12:18;5.40;;;4.28;;
3401;SDS011;1714;49.756;8.610;2022-09-12T03:32:50;6.43;;;4.65;;
3401;SDS011;1714;49.756;8.610;2022-09-12T03:42:53;6.90;;;5.15;;
3401;SDS011;1714;49.756;8.610;2022-09-12T03:52:57;10.05;;;5.55;;
3401;SDS011;1714;49.756;8.610;2022-09-12T04:02:59;10.05;;;5.78;;
3401;SDS011;1714;49.756;8.610;2022-09-12T04:13:05;5.43;;;4.93;;
3401;SDS011;1714;49.756;8.610;2022-09-12T04:23:07;8.60;;;4.70;;
3401;SDS011;1714;49.756;8.610;2022-09-12T04:33:09;7.95;;;5.00;;
3401;SDS011;1714;49.756;8.610;2022-09-12T04:43:27;8.45;;;5.43;;
3401;SDS011;1714;49.756;8.610;2022-09-12T04:53:29;7.05;;;5.90;;
3401;SDS011;1714;49.756;8.610;2022-09-12T05:03:36;8.00;;;5.88;;
3401;SDS011;1714;49.756;8.610;2022-09-12T05:13:38;8.82;;;5.25;;
3401;SDS011;1714;49.756;8.610;2022-09-12T05:23:40;5.75;;;4.63;;
3401;SDS011;1714;49.756;8.610;2022-09-12T05:33:43;10.02;;;5.18;;
3401;SDS011;1714;49.756;8.610;2022-09-12T05:43:49;7.07;;;5.40;;
3401;SDS011;1714;49.756;8.610;2022-09-12T05:54:00;9.32;;;6.45;;
3401;SDS011;1714;49.756;8.610;2022-09-12T06:04:05;18.30;;;6.70;;
3401;SDS011;1714;49.756;8.610;2022-09-12T06:14:07;15.65;;;7.65;;
3401;SDS011;1714;49.756;8.610;2022-09-12T06:24:11;11.15;;;7.22;;
3401;SDS011;1714;49.756;8.610;2022-09-12T06:34:13;17.02;;;8.77;;
3401;SDS011;1714;49.756;8.610;2022-09-12T06:44:20;9.50;;;7.70;;
3401;SDS011;1714;49.756;8.610;2022-09-12T06:54:22;12.00;;;9.40;;
3401;SDS011;1714;49.756;8.610;2022-09-12T07:04:26;15.15;;;10.50;;
3401;SDS011;1714;49.756;8.610;2022-09-12T07:14:28;14.68;;;10.80;;
3401;SDS011;1714;49.756;8.610;2022-09-12T07:24:30;19.65;;;10.23;;
3401;SDS011;1714;49.756;8.610;2022-09-12T07:34:32;15.20;;;9.88;;
3401;SDS011;1714;49.756;8.610;2022-09-12T07:44:35;13.82;;;10.00;;
3401;SDS011;1714;49.756;8.610;2022-09-12T07:54:37;16.50;;;11.88;;
3401;SDS011;1714;49.756;8.610;2022-09-12T08:04:42;15.15;;;11.68;;
3401;SDS011;1714;49.756;8.610;2022-09-12T08:14:44;16.50;;;12.38;;
3401;SDS011;1714;49.756;8.610;2022-09-12T08:24:47;20.15;;;12.57;;
3401;SDS011;1714;49.756;8.610;2022-09-12T08:34:50;20.30;;;12.57;;
3401;SDS011;1714;49.756;8.610;2022-09-12T08:44:55;16.17;;;12.43;;
3401;SDS011;1714;49.756;8.610;2022-09-12T08:55:13;17.13;;;12.05;;
3401;SDS011;1714;49.756;8.610;2022-09-12T09:06:06;13.82;;;10.13;;
3401;SDS011;1714;49.756;8.610;2022-09-12T09:16:23;17.25;;;10.13;;
3401;SDS011;1714;49.756;8.610;2022-09-12T09:46:51;9.33;;;8.43;;
3401;SDS011;1714;49.756;8.610;2022-09-12T09:57:00;10.38;;;7.30;;
3401;SDS011;1714;49.756;8.610;2022-09-12T10:07:04;8.27;;;5.95;;
3401;SDS011;1714;49.756;8.610;2022-09-12T10:17:26;8.50;;;6.20;;
3401;SDS011;1714;49.756;8.610;2022-09-12T10:27:31;8.50;;;6.28;;
3401;SDS011;1714;49.756;8.610;2022-09-12T10:37:36;6.38;;;5.47;;
3401;SDS011;1714;49.756;8.610;2022-09-12T10:47:39;5.35;;;4.28;;
3401;SDS011;1714;49.756;8.610;2022-09-12T11:08:11;6.35;;;5.03;;
3401;SDS011;1714;49.756;8.610;2022-09-12T11:39:28;5.07;;;4.57;;
3401;SDS011;1714;49.756;8.610;2022-09-12T11:49:42;4.88;;;3.65;;
3401;SDS011;1714;49.756;8.610;2022-09-12T12:10:20;3.53;;;3.22;;
3401;SDS011;1714;49.756;8.610;2022-09-12T12:20:44;4.10;;;3.57;;
3401;SDS011;1714;49.756;8.610;2022-09-12T12:51:28;4.55;;;3.50;;
3401;SDS011;1714;49.756;8.610;2022-09-12T13:01:43;5.93;;;3.45;;
3401;SDS011;1714;49.756;8.610;2022-09-12T13:12:04;3.13;;;2.92;;
3401;SDS011;1714;49.756;8.610;2022-09-12T13:22:11;3.63;;;3.15;;
3401;SDS011;1714;49.756;8.610;2022-09-12T13:32:13;5.45;;;3.40;;
3401;SDS011;1714;49.756;8.610;2022-09-12T13:52:45;5.80;;;2.97;;
3401;SDS011;1714;49.756;8.610;2022-09-12T14:02:54;3.00;;;2.80;;
3401;SDS011;1714;49.756;8.610;2022-09-12T14:13:22;3.58;;;2.70;;
3401;SDS011;1714;49.756;8.610;2022-09-12T14:23:27;3.25;;;2.63;;
3401;SDS011;1714;49.756;8.610;2022-09-12T14:33:31;3.97;;;2.95;;
3401;SDS011;1714;49.756;8.610;2022-09-12T14:43:49;7.83;;;4.07;;
3401;SDS011;1714;49.756;8.610;2022-09-12T14:53:57;4.18;;;2.42;;
3401;SDS011;1714;49.756;8.610;2022-09-12T15:03:59;4.93;;;1.65;;
3401;SDS011;1714;49.756;8.610;2022-09-12T15:14:11;4.22;;;2.67;;
3401;SDS011;1714;49.756;8.610;2022-09-12T15:24:14;1.95;;;1.75;;
3401;SDS011;1714;49.756;8.610;2022-09-12T15:34:16;6.65;;;2.00;;
3401;SDS011;1714;49.756;8.610;2022-09-12T15:44:18;3.33;;;1.92;;
3401;SDS011;1714;49.756;8.610;2022-09-12T15:54:22;2.97;;;2.05;;
3401;SDS011;1714;49.756;8.610;2022-09-12T16:04:25;4.25;;;2.00;;
3401;SDS011;1714;49.756;8.610;2022-09-12T16:14:30;2.45;;;1.75;;
3401;SDS011;1714;49.756;8.610;2022-09-12T16:24:33;3.85;;;1.52;;
3401;SDS011;1714;49.756;8.610;2022-09-12T16:34:35;1.90;;;1.73;;
3401;SDS011;1714;49.756;8.610;2022-09-12T16:44:38;4.32;;;1.65;;
3401;SDS011;1714;49.756;8.610;2022-09-12T16:54:49;1.73;;;1.60;;
3401;SDS011;1714;49.756;8.610;2022-09-12T17:04:54;3.95;;;1.73;;
3401;SDS011;1714;49.756;8.610;2022-09-12T17:14:56;1.33;;;1.23;;
3401;SDS011;1714;49.756;8.610;2022-09-12T17:24:58;3.05;;;1.73;;
3401;SDS011;1714;49.756;8.610;2022-09-12T17:35:00;2.53;;;1.98;;
3401;SDS011;1714;49.756;8.610;2022-09-12T17:45:02;2.70;;;1.98;;
3401;SDS011;1714;49.756;8.610;2022-09-12T17:55:06;5.97;;;2.22;;
3401;SDS011;1714;49.756;8.610;2022-09-12T18:05:08;3.35;;;2.40;;
3401;SDS011;1714;49.756;8.610;2022-09-12T18:15:10;3.53;;;2.45;;
3401;SDS011;1714;49.756;8.610;2022-09-12T18:25:12;5.40;;;2.95;;
3401;SDS011;1714;49.756;8.610;2022-09-12T18:35:14;4.07;;;2.75;;
3401;SDS011;1714;49.756;8.610;2022-09-12T18:45:18;4.40;;;3.13;;
3401;SDS011;1714;49.756;8.610;2022-09-12T18:55:21;2.75;;;2.40;;
3401;SDS011;1714;49.756;8.610;2022-09-12T19:05:23;4.72;;;2.65;;
3401;SDS011;1714;49.756;8.610;2022-09-12T19:15:25;4.63;;;3.22;;
3401;SDS011;1714;49.756;8.610;2022-09-12T19:25:27;6.47;;;2.83;;
3401;SDS011;1714;49.756;8.610;2022-09-12T19:35:29;4.78;;;2.20;;
3401;SDS011;1714;49.756;8.610;2022-09-12T19:45:32;2.47;;;2.25;;
3401;SDS011;1714;49.756;8.610;2022-09-12T19:55:35;2.80;;;2.55;;
3401;SDS011;1714;49.756;8.610;2022-09-12T20:05:41;3.55;;;2.42;;
3401;SDS011;1714;49.756;8.610;2022-09-12T20:15:45;2.50;;;2.30;;
3401;SDS011;1714;49.756;8.610;2022-09-12T20:25:47;2.65;;;2.42;;
3401;SDS011;1714;49.756;8.610;2022-09-12T20:35:59;2.55;;;2.35;;
3401;SDS011;1714;49.756;8.610;2022-09-12T20:46:27;6.60;;;2.38;;
3401;SDS011;1714;49.756;8.610;2022-09-12T20:56:31;3.08;;;2.40;;
3401;SDS011;1714;49.756;8.610;2022-09-12T21:06:39;7.97;;;2.25;;
3401;SDS011;1714;49.756;8.610;2022-09-12T21:16:42;2.30;;;2.10;;
3401;SDS011;1714;49.756;8.610;2022-09-12T21:26:44;4.57;;;1.90;;
3401;SDS011;1714;49.756;8.610;2022-09-12T21:36:47;2.83;;;2.50;;
3401;SDS011;1714;49.756;8.610;2022-09-12T21:46:50;2.13;;;1.92;;
3401;SDS011;1714;49.756;8.610;2022-09-12T21:56:52;2.90;;;2.63;;
3401;SDS011;1714;49.756;8.610;2022-09-12T22:06:54;2.78;;;2.53;;
3401;SDS011;1714;49.756;8.610;2022-09-12T22:16:57;4.68;;;3.08;;
3401;SDS011;1714;49.756;8.610;2022-09-12T22:27:00;6.80;;;3.33;;
3401;SDS011;1714;49.756;8.610;2022-09-12T22:37:08;4.20;;;2.97;;
3401;SDS011;1714;49.756;8.610;2022-09-12T22:47:11;8.80;;;3.10;;
3401;SDS011;1714;49.756;8.610;2022-09-12T22:57:13;8.55;;;3.22;;
3401;SDS011;1714;49.756;8.610;2022-09-12T23:07:15;3.83;;;3.03;;
3401;SDS011;1714;49.756;8.610;2022-09-12T23:17:17;5.93;;;3.22;;
3401;SDS011;1714;49.756;8.610;2022-09-12T23:27:19;3.97;;;3.33;;
3401;SDS011;1714;49.756;8.610;2022-09-12T23:37:22;3.22;;;2.88;;
3401;SDS011;1714;49.756;8.610;2022-09-12T23:47:27;3.58;;;3.20;;
3401;SDS011;1714;49.756;8.610;2022-09-12T23:57:29;3.80;;;2.90;;
